sensor_id;sensor_type;location;lat;lon;timestamp;P1;durP1;ratioP1;P2;durP2;ratioP2
18267;SDS011;9260;49.998;19.880;2023-03-11T00:02:54;191.30;;;87.17;;
18267;SDS011;9260;49.998;19.880;2023-03-11T00:13:00;194.60;;;88.10;;
18267;SDS011;9260;49.998;19.880;2023-03-11T00:23:06;200.57;;;90.93;;
18267;SDS011;9260;49.998;19.880;2023-03-11T00:33:11;193.73;;;86.70;;
18267;SDS011;9260;49.998;19.880;2023-03-11T00:43:17;197.00;;;88.77;;
18267;SDS011;9260;49.998;19.880;2023-03-11T00:53:21;198.67;;;82.53;;
18267;SDS011;9260;49.998;19.880;2023-03-11T01:03:26;200.20;;;88.93;;
18267;SDS011;9260;49.998;19.880;2023-03-11T01:13:30;199.17;;;87.37;;
18267;SDS011;9260;49.998;19.880;2023-03-11T01:23:36;199.93;;;85.17;;
18267;SDS011;9260;49.998;19.880;2023-03-11T01:33:40;200.13;;;88.83;;
18267;SDS011;9260;49.998;19.880;2023-03-11T01:43:48;195.77;;;89.00;;
18267;SDS011;9260;49.998;19.880;2023-03-11T01:53:59;194.30;;;83.50;;
18267;SDS011;9260;49.998;19.880;2023-03-11T02:04:09;199.27;;;88.13;;
18267;SDS011;9260;49.998;19.880;2023-03-11T02:14:12;188.67;;;81.87;;
18267;SDS011;9260;49.998;19.880;2023-03-11T02:24:18;197.10;;;86.07;;
18267;SDS011;9260;49.998;19.880;2023-03-11T02:34:32;195.73;;;86.90;;
18267;SDS011;9260;49.998;19.880;2023-03-11T02:44:38;197.57;;;85.33;;
18267;SDS011;9260;49.998;19.880;2023-03-11T02:54:45;191.93;;;82.57;;
18267;SDS011;9260;49.998;19.880;2023-03-11T03:04:49;196.53;;;86.43;;
18267;SDS011;9260;49.998;19.880;2023-03-11T03:14:54;194.43;;;84.57;;
18267;SDS011;9260;49.998;19.880;2023-03-11T03:24:59;193.40;;;81.60;;
18267;SDS011;9260;49.998;19.880;2023-03-11T03:35:06;192.90;;;79.63;;
18267;SDS011;9260;49.998;19.880;2023-03-11T03:45:42;191.17;;;80.30;;
18267;SDS011;9260;49.998;19.880;2023-03-11T03:55:47;195.77;;;84.37;;
18267;SDS011;9260;49.998;19.880;2023-03-11T04:05:53;191.60;;;81.43;;
18267;SDS011;9260;49.998;19.880;2023-03-11T04:15:58;192.10;;;81.77;;
18267;SDS011;9260;49.998;19.880;2023-03-11T04:26:02;192.93;;;80.47;;
18267;SDS011;9260;49.998;19.880;2023-03-11T04:36:10;193.63;;;82.60;;
18267;SDS011;9260;49.998;19.880;2023-03-11T04:46:15;197.73;;;81.70;;
18267;SDS011;9260;49.998;19.880;2023-03-11T04:56:20;188.20;;;77.60;;
18267;SDS011;9260;49.998;19.880;2023-03-11T05:06:24;196.43;;;82.37;;
18267;SDS011;9260;49.998;19.880;2023-03-11T05:16:29;196.77;;;81.00;;
18267;SDS011;9260;49.998;19.880;2023-03-11T05:26:33;198.57;;;84.17;;
18267;SDS011;9260;49.998;19.880;2023-03-11T05:36:39;193.03;;;80.97;;
18267;SDS011;9260;49.998;19.880;2023-03-11T05:46:42;193.30;;;81.80;;
18267;SDS011;9260;49.998;19.880;2023-03-11T05:56:47;199.00;;;85.50;;
18267;SDS011;9260;49.998;19.880;2023-03-11T06:06:53;198.77;;;89.50;;
18267;SDS011;9260;49.998;19.880;2023-03-11T06:17:00;202.37;;;92.73;;
18267;SDS011;9260;49.998;19.880;2023-03-11T06:27:06;205.37;;;90.47;;
18267;SDS011;9260;49.998;19.880;2023-03-11T06:37:15;186.27;;;92.27;;
18267;SDS011;9260;49.998;19.880;2023-03-11T06:47:20;193.10;;;88.37;;
18267;SDS011;9260;49.998;19.880;2023-03-11T06:57:25;189.80;;;80.77;;
18267;SDS011;9260;49.998;19.880;2023-03-11T07:07:32;184.73;;;79.40;;
18267;SDS011;9260;49.998;19.880;2023-03-11T07:17:38;191.23;;;80.50;;
18267;SDS011;9260;49.998;19.880;2023-03-11T07:27:42;188.93;;;83.07;;
18267;SDS011;9260;49.998;19.880;2023-03-11T07:37:47;185.73;;;82.20;;
18267;SDS011;9260;49.998;19.880;2023-03-11T07:47:51;184.97;;;75.60;;
18267;SDS011;9260;49.998;19.880;2023-03-11T07:57:55;186.23;;;77.53;;
18267;SDS011;9260;49.998;19.880;2023-03-11T08:07:59;191.43;;;79.70;;
18267;SDS011;9260;49.998;19.880;2023-03-11T08:18:04;197.17;;;90.47;;
18267;SDS011;9260;49.998;19.880;2023-03-11T08:28:09;189.33;;;78.83;;
18267;SDS011;9260;49.998;19.880;2023-03-11T08:38:14;187.93;;;77.07;;
18267;SDS011;9260;49.998;19.880;2023-03-11T08:48:18;191.63;;;80.20;;
18267;SDS011;9260;49.998;19.880;2023-03-11T08:58:22;191.17;;;77.77;;
18267;SDS011;9260;49.998;19.880;2023-03-11T09:08:26;188.57;;;82.03;;
18267;SDS011;9260;49.998;19.880;2023-03-11T09:18:31;192.17;;;83.43;;
18267;SDS011;9260;49.998;19.880;2023-03-11T09:28:34;187.57;;;78.90;;
18267;SDS011;9260;49.998;19.880;2023-03-11T09:38:39;193.70;;;80.70;;
18267;SDS011;9260;49.998;19.880;2023-03-11T09:48:43;197.97;;;84.63;;
18267;SDS011;9260;49.998;19.880;2023-03-11T09:58:53;192.73;;;82.77;;
18267;SDS011;9260;49.998;19.880;2023-03-11T10:08:59;193.47;;;82.07;;
18267;SDS011;9260;49.998;19.880;2023-03-11T10:19:13;191.50;;;82.70;;
18267;SDS011;9260;49.998;19.880;2023-03-11T10:29:26;192.83;;;80.93;;
18267;SDS011;9260;49.998;19.880;2023-03-11T10:39:34;187.47;;;79.23;;
18267;SDS011;9260;49.998;19.880;2023-03-11T10:49:38;189.57;;;80.57;;
18267;SDS011;9260;49.998;19.880;2023-03-11T10:59:46;193.40;;;81.03;;
18267;SDS011;9260;49.998;19.880;2023-03-11T11:10:10;191.97;;;86.00;;
18267;SDS011;9260;49.998;19.880;2023-03-11T11:20:20;187.57;;;76.33;;
18267;SDS011;9260;49.998;19.880;2023-03-11T11:30:25;199.17;;;84.00;;
18267;SDS011;9260;49.998;19.880;2023-03-11T11:40:32;192.93;;;82.27;;
18267;SDS011;9260;49.998;19.880;2023-03-11T11:50:36;189.10;;;77.33;;
18267;SDS011;9260;49.998;19.880;2023-03-11T12:00:48;193.17;;;78.10;;
18267;SDS011;9260;49.998;19.880;2023-03-11T12:11:19;192.23;;;79.03;;
18267;SDS011;9260;49.998;19.880;2023-03-11T12:21:35;187.93;;;80.80;;
18267;SDS011;9260;49.998;19.880;2023-03-11T12:32:11;190.43;;;85.07;;
18267;SDS011;9260;49.998;19.880;2023-03-11T12:42:37;193.47;;;89.60;;
18267;SDS011;9260;49.998;19.880;2023-03-11T12:52:51;185.93;;;79.83;;
18267;SDS011;9260;49.998;19.880;2023-03-11T13:03:11;194.33;;;96.13;;
18267;SDS011;9260;49.998;19.880;2023-03-11T13:13:49;184.73;;;82.73;;
18267;SDS011;9260;49.998;19.880;2023-03-11T13:23:58;191.20;;;89.23;;
18267;SDS011;9260;49.998;19.880;2023-03-11T13:34:54;188.10;;;88.90;;
18267;SDS011;9260;49.998;19.880;2023-03-11T13:45:18;189.27;;;86.80;;
18267;SDS011;9260;49.998;19.880;2023-03-11T13:55:31;192.27;;;88.20;;
18267;SDS011;9260;49.998;19.880;2023-03-11T14:05:42;192.87;;;86.87;;
18267;SDS011;9260;49.998;19.880;2023-03-11T14:15:52;181.70;;;80.63;;
18267;SDS011;9260;49.998;19.880;2023-03-11T14:26:05;182.73;;;75.53;;
18267;SDS011;9260;49.998;19.880;2023-03-11T14:36:10;183.67;;;76.83;;
18267;SDS011;9260;49.998;19.880;2023-03-11T14:46:19;186.83;;;78.00;;
18267;SDS011;9260;49.998;19.880;2023-03-11T14:56:29;186.80;;;79.23;;
18267;SDS011;9260;49.998;19.880;2023-03-11T15:06:39;187.70;;;78.47;;
18267;SDS011;9260;49.998;19.880;2023-03-11T17:30:00;171.37;;;94.63;;
18267;SDS011;9260;49.998;19.880;2023-03-11T17:40:07;161.63;;;87.83;;
18267;SDS011;9260;49.998;19.880;2023-03-11T17:50:13;169.73;;;88.10;;
18267;SDS011;9260;49.998;19.880;2023-03-11T18:00:18;162.73;;;85.23;;
18267;SDS011;9260;49.998;19.880;2023-03-11T18:10:24;170.33;;;89.83;;
18267;SDS011;9260;49.998;19.880;2023-03-11T18:20:28;171.40;;;87.73;;
18267;SDS011;9260;49.998;19.880;2023-03-11T18:30:36;165.03;;;84.00;;
18267;SDS011;9260;49.998;19.880;2023-03-11T18:40:40;163.90;;;84.50;;
18267;SDS011;9260;49.998;19.880;2023-03-11T18:50:50;174.87;;;92.03;;
18267;SDS011;9260;49.998;19.880;2023-03-11T19:00:54;171.17;;;85.73;;
18267;SDS011;9260;49.998;19.880;2023-03-11T19:11:10;172.13;;;85.60;;
18267;SDS011;9260;49.998;19.880;2023-03-11T19:21:16;175.30;;;87.53;;
18267;SDS011;9260;49.998;19.880;2023-03-11T19:31:21;174.23;;;84.53;;
18267;SDS011;9260;49.998;19.880;2023-03-11T19:41:25;190.63;;;92.77;;
18267;SDS011;9260;49.998;19.880;2023-03-11T19:51:31;190.00;;;91.27;;
18267;SDS011;9260;49.998;19.880;2023-03-11T20:01:50;182.90;;;90.07;;
18267;SDS011;9260;49.998;19.880;2023-03-11T20:11:55;174.47;;;90.40;;
18267;SDS011;9260;49.998;19.880;2023-03-11T20:21:58;175.63;;;85.53;;
18267;SDS011;9260;49.998;19.880;2023-03-11T20:32:04;172.30;;;85.83;;
18267;SDS011;9260;49.998;19.880;2023-03-11T20:42:08;175.87;;;84.10;;
18267;SDS011;9260;49.998;19.880;2023-03-11T20:52:13;174.23;;;84.27;;
18267;SDS011;9260;49.998;19.880;2023-03-11T21:02:17;169.70;;;80.40;;
18267;SDS011;9260;49.998;19.880;2023-03-11T21:12:22;170.67;;;81.67;;
18267;SDS011;9260;49.998;19.880;2023-03-11T21:22:26;180.43;;;87.03;;
18267;SDS011;9260;49.998;19.880;2023-03-11T21:32:32;176.30;;;85.77;;
18267;SDS011;9260;49.998;19.880;2023-03-11T21:42:36;183.63;;;90.87;;
18267;SDS011;9260;49.998;19.880;2023-03-11T21:52:42;182.10;;;88.23;;
18267;SDS011;9260;49.998;19.880;2023-03-11T22:02:45;189.73;;;100.13;;
18267;SDS011;9260;49.998;19.880;2023-03-11T22:12:50;180.20;;;85.60;;
18267;SDS011;9260;49.998;19.880;2023-03-11T22:22:54;187.10;;;88.13;;
18267;SDS011;9260;49.998;19.880;2023-03-11T22:33:00;182.47;;;85.83;;
18267;SDS011;9260;49.998;19.880;2023-03-11T22:43:04;182.43;;;85.47;;
18267;SDS011;9260;49.998;19.880;2023-03-11T22:53:09;196.40;;;87.77;;
18267;SDS011;9260;49.998;19.880;2023-03-11T23:03:14;187.00;;;88.13;;
18267;SDS011;9260;49.998;19.880;2023-03-11T23:13:19;186.93;;;86.17;;
18267;SDS011;9260;49.998;19.880;2023-03-11T23:23:23;196.67;;;91.13;;
18267;SDS011;9260;49.998;19.880;2023-03-11T23:33:28;187.00;;;87.47;;
18267;SDS011;9260;49.998;19.880;2023-03-11T23:43:32;187.03;;;85.60;;
18267;SDS011;9260;49.998;19.880;2023-03-11T23:53:38;185.00;;;91.37;;
